Time;durP1;ratioP1;P1;durP2;ratioP2;P2;SDS_P1;SDS_P2;PMS_P1;PMS_P2;Temp;Humidity;BMP_temperature;BMP_pressure;BME280_temperature;BME280_humidity;BME280_pressure;Samples;Min_cycle;Max_cycle;Signal;HPM_P1;HPM_P2
2023/04/12 00:02:11;;;;;;;;;;;5.50;99.90;;;;;;4953999;28;19915;-74
2023/04/12 00:04:37;;;;;;;;;;;5.50;99.90;;;;;;4950975;28;19918;-74
2023/04/12 00:07:04;;;;;;;;;;;5.40;99.90;;;;;;4921458;29;19925;-74
2023/04/12 00:09:31;;;;;;;;;;;5.40;99.90;;;;;;4962749;28;19914;-74
2023/04/12 00:11:57;;;;;;;;;;;5.30;99.90;;;;;;4941193;29;20685;-74
2023/04/12 00:14:23;;;;;;;;;;;5.30;99.90;;;;;;4938385;29;19915;-74
2023/04/12 00:16:49;;;;;;;;;;;5.20;99.90;;;;;;4925070;29;19914;-74
2023/04/12 00:19:15;;;;;;;;;;;5.20;99.90;;;;;;4932476;29;20859;-74
2023/04/12 00:21:41;;;;;;;;;;;5.20;99.90;;;;;;4948800;28;19998;-74
2023/04/12 00:24:07;;;;;;;;;;;5.30;99.90;;;;;;4930250;29;20004;-74
2023/04/12 00:26:32;;;;;;;;;;;5.40;99.90;;;;;;4916628;29;19910;-74
2023/04/12 00:28:58;;;;;;;;;;;5.30;99.90;;;;;;4895091;29;20564;-74
2023/04/12 00:31:24;;;;;;;;;;;5.30;99.90;;;;;;4943181;29;20316;-74
2023/04/12 00:33:49;;;;;;;;;;;5.40;99.90;;;;;;4932202;29;19941;-74
2023/04/12 00:36:15;;;;;;;;;;;5.40;99.90;;;;;;4927551;29;20012;-73
2023/04/12 00:38:41;;;;;;;;;;;5.40;99.90;;;;;;4911209;29;20004;-74
2023/04/12 00:41:08;;;;;;;;;;;5.30;99.90;;;;;;4936548;29;19973;-74
2023/04/12 00:43:33;;;;;;;;;;;5.30;99.90;;;;;;4890742;29;19919;-73
2023/04/12 00:45:59;;;;;;;;;;;5.30;99.90;;;;;;4928253;29;19945;-74
2023/04/12 00:48:26;;;;;;;;;;;5.40;99.90;;;;;;4942137;29;20596;-74
2023/04/12 00:50:54;;;;;;;;;;;5.40;99.90;;;;;;4945657;29;20054;-74
2023/04/12 00:53:20;;;;;;;;;;;5.40;99.90;;;;;;4944671;29;19914;-74
2023/04/12 00:55:46;;;;;;;;;;;5.40;99.90;;;;;;4947244;29;19911;-74
2023/04/12 00:58:13;;;;;;;;;;;5.40;99.90;;;;;;4932098;29;19918;-74
2023/04/12 01:00:38;;;;;;;;;;;5.40;99.90;;;;;;4954377;28;19921;-74
2023/04/12 01:03:04;;;;;;;;;;;5.40;99.90;;;;;;4938101;29;19919;-74
2023/04/12 01:05:30;;;;;;;;;;;5.40;99.90;;;;;;4920108;29;19926;-74
2023/04/12 01:08:05;;;;;;;;;;;5.40;99.90;;;;;;4942218;29;19926;-74
2023/04/12 01:10:39;;;;;;;;;;;5.40;99.90;;;;;;4940895;29;19973;-74
2023/04/12 01:13:11;;;;;;;;;;;5.30;99.90;;;;;;4955563;29;19921;-74
2023/04/12 01:15:38;;;;;;;;;;;5.30;99.90;;;;;;4954347;28;19911;-74
2023/04/12 01:18:05;;;;;;;;;;;5.30;99.90;;;;;;4938418;29;19922;-74
2023/04/12 01:20:32;;;;;;;;;;;5.30;99.90;;;;;;4940779;29;19953;-74
2023/04/12 01:23:09;;;;;;;;;;;5.30;99.90;;;;;;4946998;28;19973;-74
2023/04/12 01:25:38;;;;;;;;;;;5.30;99.90;;;;;;4946315;28;19915;-74
2023/04/12 01:28:04;;;;;;;;;;;5.20;99.90;;;;;;4944372;29;19910;-75
2023/04/12 01:30:30;;;;;;;;;;;5.20;99.90;;;;;;4947273;29;19914;-75
2023/04/12 01:32:56;;;;;;;;;;;5.30;99.90;;;;;;4921404;29;20251;-75
2023/04/12 01:35:23;;;;;;;;;;;5.30;99.90;;;;;;4939551;28;19918;-76
2023/04/12 01:37:48;;;;;;;;;;;5.20;99.90;;;;;;4951248;29;20402;-76
2023/04/12 01:40:14;;;;;;;;;;;5.20;99.90;;;;;;4958653;28;19911;-76
2023/04/12 01:42:40;;;;;;;;;;;5.20;99.90;;;;;;4940882;29;19918;-73
2023/04/12 01:45:06;;;;;;;;;;;5.20;99.90;;;;;;4931980;29;19914;-76
2023/04/12 01:47:32;;;;;;;;;;;5.30;99.90;;;;;;4952660;29;20557;-75
2023/04/12 01:50:02;;;;;;;;;;;5.30;99.90;;;;;;4958203;28;19915;-76
2023/04/12 01:52:28;;;;;;;;;;;5.30;99.90;;;;;;4920680;29;19914;-75
2023/04/12 01:54:54;;;;;;;;;;;5.40;99.90;;;;;;4936512;29;20316;-74
2023/04/12 01:57:20;;;;;;;;;;;5.40;99.90;;;;;;4932208;29;20001;-74
2023/04/12 01:59:47;;;;;;;;;;;5.40;99.90;;;;;;4946570;28;19998;-75
2023/04/12 02:02:13;;;;;;;;;;;5.50;99.90;;;;;;4940990;29;19911;-75
2023/04/12 02:04:39;;;;;;;;;;;5.50;99.90;;;;;;4920715;29;19914;-75
2023/04/12 02:07:05;;;;;;;;;;;5.60;99.90;;;;;;4948122;29;20525;-75
2023/04/12 02:09:35;;;;;;;;;;;5.60;99.90;;;;;;4922249;29;19914;-75
2023/04/12 02:12:00;;;;;;;;;;;5.60;99.90;;;;;;4910016;29;19918;-75
2023/04/12 02:14:26;;;;;;;;;;;5.60;99.90;;;;;;4915379;29;19915;-75
2023/04/12 02:16:54;;;;;;;;;;;5.70;99.90;;;;;;4923104;29;20246;-75
2023/04/12 02:19:20;;;;;;;;;;;5.70;99.90;;;;;;4965682;28;19928;-75
2023/04/12 02:21:45;;;;;;;;;;;5.70;99.90;;;;;;4947271;29;19914;-75
2023/04/12 02:24:11;;;;;;;;;;;5.80;99.90;;;;;;4925973;29;19937;-75
2023/04/12 02:26:37;;;;;;;;;;;5.80;99.90;;;;;;4925563;29;20353;-75
2023/04/12 02:29:03;;;;;;;;;;;5.90;99.90;;;;;;4948971;29;20556;-75
2023/04/12 02:31:32;;;;;;;;;;;5.90;99.90;;;;;;4933961;29;19922;-75
2023/04/12 02:33:57;;;;;;;;;;;5.90;99.90;;;;;;4924902;29;20287;-75
2023/04/12 02:36:23;;;;;;;;;;;5.90;99.90;;;;;;4910142;29;20002;-75
2023/04/12 02:38:51;;;;;;;;;;;6.00;99.90;;;;;;4922449;29;20631;-75
2023/04/12 02:41:17;;;;;;;;;;;6.10;99.90;;;;;;4934830;29;20717;-75
2023/04/12 02:43:43;;;;;;;;;;;6.10;99.90;;;;;;4944991;29;20005;-75
2023/04/12 02:46:09;;;;;;;;;;;6.10;99.90;;;;;;4909523;29;19914;-75
2023/04/12 02:48:35;;;;;;;;;;;6.20;99.90;;;;;;4953218;29;19921;-75
2023/04/12 02:51:00;;;;;;;;;;;6.10;99.90;;;;;;4936824;29;19922;-75
2023/04/12 02:53:26;;;;;;;;;;;6.20;99.90;;;;;;4908759;29;19925;-75
2023/04/12 02:55:52;;;;;;;;;;;6.20;99.90;;;;;;4952406;28;19965;-75
2023/04/12 02:58:18;;;;;;;;;;;6.30;99.90;;;;;;4912226;29;19958;-75
2023/04/12 03:00:44;;;;;;;;;;;6.30;99.90;;;;;;4930639;28;20511;-75
2023/04/12 03:03:10;;;;;;;;;;;6.30;99.90;;;;;;4938229;29;19922;-75
2023/04/12 03:05:36;;;;;;;;;;;6.30;99.90;;;;;;4926855;29;19915;-75
2023/04/12 03:08:02;;;;;;;;;;;6.30;99.90;;;;;;4898959;29;20364;-75
2023/04/12 03:10:29;;;;;;;;;;;6.30;99.90;;;;;;4948858;29;19911;-75
2023/04/12 03:12:54;;;;;;;;;;;6.30;99.90;;;;;;4953328;29;21900;-75
2023/04/12 03:15:22;;;;;;;;;;;6.30;99.90;;;;;;4949255;29;20001;-75
2023/04/12 03:17:47;;;;;;;;;;;6.30;99.90;;;;;;4966049;28;19914;-75
2023/04/12 03:20:13;;;;;;;;;;;6.30;99.90;;;;;;4953439;29;19915;-75
2023/04/12 03:22:39;;;;;;;;;;;6.40;99.90;;;;;;4935928;29;19985;-74
2023/04/12 03:25:06;;;;;;;;;;;6.40;99.90;;;;;;4946367;29;19919;-75
2023/04/12 03:27:31;;;;;;;;;;;6.40;99.90;;;;;;4911772;29;19930;-75
2023/04/12 03:29:57;;;;;;;;;;;6.40;99.90;;;;;;4924274;29;19914;-75
2023/04/12 03:32:23;;;;;;;;;;;6.50;99.90;;;;;;4939256;29;19926;-75
2023/04/12 03:34:48;;;;;;;;;;;6.50;99.90;;;;;;4961638;28;19973;-75
2023/04/12 03:37:14;;;;;;;;;;;6.60;99.90;;;;;;4949687;29;19957;-75
2023/04/12 03:39:40;;;;;;;;;;;6.60;99.90;;;;;;4945524;29;19914;-75
2023/04/12 03:42:05;;;;;;;;;;;6.70;99.90;;;;;;4933827;29;19950;-75
2023/04/12 03:44:32;;;;;;;;;;;6.70;99.90;;;;;;4940253;29;19954;-75
2023/04/12 03:46:58;;;;;;;;;;;6.70;99.90;;;;;;4942840;29;19981;-74
2023/04/12 03:49:23;;;;;;;;;;;6.80;99.90;;;;;;4967504;28;19950;-75
2023/04/12 03:51:49;;;;;;;;;;;6.80;99.90;;;;;;4927217;29;19915;-75
2023/04/12 03:54:15;;;;;;;;;;;6.80;99.90;;;;;;4914931;29;19956;-76
2023/04/12 03:56:40;;;;;;;;;;;6.90;99.90;;;;;;4958536;28;20379;-75
2023/04/12 03:59:06;;;;;;;;;;;6.90;99.90;;;;;;4921505;29;20335;-75
2023/04/12 04:01:35;;;;;;;;;;;6.90;99.90;;;;;;4939188;29;19929;-75
2023/04/12 04:04:01;;;;;;;;;;;6.90;99.90;;;;;;4926915;29;20339;-75
2023/04/12 04:06:28;;;;;;;;;;;7.00;99.90;;;;;;4911502;29;19945;-75
2023/04/12 04:08:57;;;;;;;;;;;7.00;99.90;;;;;;4917530;29;20382;-75
2023/04/12 04:11:23;;;;;;;;;;;7.10;99.90;;;;;;4952274;28;19910;-75
2023/04/12 04:13:50;;;;;;;;;;;7.00;99.90;;;;;;4952660;28;19920;-75
2023/04/12 04:16:16;;;;;;;;;;;7.00;99.90;;;;;;4965293;28;19957;-75
2023/04/12 04:18:44;;;;;;;;;;;7.00;99.90;;;;;;4964851;28;19926;-75
2023/04/12 04:21:09;;;;;;;;;;;7.00;99.90;;;;;;4955870;28;19942;-75
2023/04/12 04:23:38;;;;;;;;;;;7.10;99.90;;;;;;4930642;29;19969;-75
2023/04/12 04:26:05;;;;;;;;;;;7.10;99.90;;;;;;4944383;29;20768;-75
2023/04/12 04:28:32;;;;;;;;;;;7.10;99.90;;;;;;4924620;29;19925;-75
2023/04/12 04:31:04;;;;;;;;;;;7.10;99.90;;;;;;4950794;29;19910;-75
2023/04/12 04:33:31;;;;;;;;;;;7.10;99.90;;;;;;4940158;29;20280;-75
2023/04/12 04:35:57;;;;;;;;;;;7.20;99.90;;;;;;4950860;29;19918;-74
2023/04/12 04:38:25;;;;;;;;;;;7.20;99.90;;;;;;4936838;29;19952;-75
2023/04/12 04:40:54;;;;;;;;;;;7.10;99.90;;;;;;4924554;29;20223;-75
2023/04/12 04:43:20;;;;;;;;;;;7.10;99.90;;;;;;4918518;29;19919;-75
2023/04/12 04:45:48;;;;;;;;;;;7.10;99.90;;;;;;4932149;29;20461;-74
2023/04/12 04:48:15;;;;;;;;;;;7.10;99.90;;;;;;4911874;29;19968;-75
2023/04/12 04:50:40;;;;;;;;;;;7.20;99.90;;;;;;4939181;29;20005;-75
2023/04/12 04:53:06;;;;;;;;;;;7.10;99.90;;;;;;4945810;29;20021;-75
2023/04/12 04:55:32;;;;;;;;;;;7.10;99.90;;;;;;4920408;29;19974;-75
2023/04/12 04:57:57;;;;;;;;;;;7.10;99.90;;;;;;4935692;29;19914;-75
2023/04/12 05:00:24;;;;;;;;;;;7.00;99.90;;;;;;4936991;29;19921;-74
2023/04/12 05:02:50;;;;;;;;;;;7.10;99.90;;;;;;4926502;29;19960;-75
2023/04/12 05:05:16;;;;;;;;;;;7.10;99.90;;;;;;4911987;29;19981;-75
2023/04/12 05:07:45;;;;;;;;;;;7.10;99.90;;;;;;4950592;29;19919;-75
2023/04/12 05:10:10;;;;;;;;;;;7.20;99.90;;;;;;4926810;29;20335;-75
2023/04/12 05:12:36;;;;;;;;;;;7.20;99.90;;;;;;4917202;29;19929;-75
2023/04/12 05:15:02;;;;;;;;;;;7.20;99.90;;;;;;4899797;29;19914;-75
2023/04/12 05:17:28;;;;;;;;;;;7.20;99.90;;;;;;4959362;28;19942;-75
2023/04/12 05:19:53;;;;;;;;;;;7.10;99.90;;;;;;4940576;29;19926;-74
2023/04/12 05:22:20;;;;;;;;;;;7.20;99.90;;;;;;4926725;29;19918;-75
2023/04/12 05:24:49;;;;;;;;;;;7.10;99.90;;;;;;4922250;29;19964;-75
2023/04/12 05:27:15;;;;;;;;;;;7.10;99.90;;;;;;4926354;29;19919;-75
2023/04/12 05:29:44;;;;;;;;;;;7.10;99.90;;;;;;4969160;28;19910;-75
2023/04/12 05:32:10;;;;;;;;;;;7.10;99.90;;;;;;4957287;28;19998;-75
2023/04/12 05:34:36;;;;;;;;;;;7.00;99.90;;;;;;4900185;29;20563;-75
2023/04/12 05:37:02;;;;;;;;;;;7.00;99.90;;;;;;4912689;29;19922;-75
2023/04/12 05:39:28;;;;;;;;;;;7.00;99.90;;;;;;4948378;29;19915;-76
2023/04/12 05:41:54;;;;;;;;;;;7.00;99.90;;;;;;4921906;29;19964;-75
2023/04/12 05:44:19;;;;;;;;;;;7.10;99.90;;;;;;4969057;28;20327;-75
2023/04/12 05:46:46;;;;;;;;;;;7.10;99.90;;;;;;4946228;29;19915;-76
2023/04/12 05:49:11;;;;;;;;;;;7.10;99.90;;;;;;4938080;29;19934;-75
2023/04/12 05:51:37;;;;;;;;;;;7.10;99.90;;;;;;4925668;29;19926;-75
2023/04/12 05:54:05;;;;;;;;;;;7.10;99.90;;;;;;4920182;29;19915;-76
2023/04/12 05:56:31;;;;;;;;;;;7.10;99.90;;;;;;4945036;29;19921;-75
2023/04/12 05:58:57;;;;;;;;;;;7.10;99.90;;;;;;4965465;28;19918;-75
2023/04/12 06:01:23;;;;;;;;;;;7.20;99.90;;;;;;4920439;29;20004;-75
2023/04/12 06:03:49;;;;;;;;;;;7.30;99.90;;;;;;4933841;29;19918;-75
2023/04/12 06:06:15;;;;;;;;;;;7.30;99.90;;;;;;4931302;29;20000;-75
2023/04/12 06:08:41;;;;;;;;;;;7.30;99.90;;;;;;4931259;29;19961;-75
2023/04/12 06:11:08;;;;;;;;;;;7.40;99.90;;;;;;4944825;29;19919;-75
2023/04/12 06:13:33;;;;;;;;;;;7.40;99.90;;;;;;4924630;29;19915;-75
2023/04/12 06:15:59;;;;;;;;;;;7.50;99.90;;;;;;4933875;29;19910;-75
2023/04/12 06:18:25;;;;;;;;;;;7.60;99.90;;;;;;4952471;29;19926;-75
2023/04/12 06:20:50;;;;;;;;;;;7.60;99.90;;;;;;4928522;29;19937;-75
2023/04/12 06:23:18;;;;;;;;;;;7.60;99.90;;;;;;4897518;29;20492;-75
2023/04/12 06:25:43;;;;;;;;;;;7.70;99.90;;;;;;4887723;29;19910;-75
2023/04/12 06:28:09;;;;;;;;;;;7.80;99.90;;;;;;4903290;29;19985;-75
2023/04/12 06:30:35;;;;;;;;;;;7.80;99.90;;;;;;4897741;29;19915;-75
2023/04/12 06:33:00;;;;;;;;;;;7.90;99.90;;;;;;4962819;28;19910;-75
2023/04/12 06:35:26;;;;;;;;;;;7.90;99.90;;;;;;4940416;28;19915;-75
2023/04/12 06:37:52;;;;;;;;;;;8.00;99.90;;;;;;4931065;29;19915;-75
2023/04/12 06:40:17;;;;;;;;;;;8.10;99.90;;;;;;4951747;29;19914;-75
2023/04/12 06:42:43;;;;;;;;;;;8.10;99.90;;;;;;4949302;29;19929;-75
2023/04/12 06:45:09;;;;;;;;;;;8.20;99.90;;;;;;4905688;29;20598;-75
2023/04/12 06:47:34;;;;;;;;;;;8.30;99.90;;;;;;4943176;29;20447;-75
2023/04/12 06:50:00;;;;;;;;;;;8.30;99.90;;;;;;4924301;29;19911;-75
2023/04/12 06:52:26;;;;;;;;;;;8.40;99.90;;;;;;4928220;29;19997;-75
2023/04/12 06:54:52;;;;;;;;;;;8.40;99.90;;;;;;4952436;28;20434;-75
2023/04/12 06:57:17;;;;;;;;;;;8.50;99.90;;;;;;4926893;29;19985;-75
2023/04/12 06:59:44;;;;;;;;;;;8.60;99.90;;;;;;4951020;29;19972;-75
2023/04/12 07:02:10;;;;;;;;;;;8.60;99.90;;;;;;4945174;29;19922;-75
2023/04/12 07:04:36;;;;;;;;;;;8.60;99.90;;;;;;4925320;29;19927;-75
2023/04/12 07:07:01;;;;;;;;;;;8.60;99.90;;;;;;4898812;29;20390;-75
2023/04/12 07:09:29;;;;;;;;;;;8.60;99.90;;;;;;4910922;29;20094;-75
2023/04/12 07:11:55;;;;;;;;;;;8.60;99.90;;;;;;4947813;29;20272;-75
2023/04/12 07:14:21;;;;;;;;;;;8.70;99.90;;;;;;4915995;29;19915;-75
2023/04/12 07:16:46;;;;;;;;;;;8.70;99.90;;;;;;4902801;29;19946;-75
2023/04/12 07:19:12;;;;;;;;;;;8.80;99.90;;;;;;4925951;29;19973;-75
2023/04/12 07:21:37;;;;;;;;;;;8.80;99.90;;;;;;4965105;28;19996;-75
2023/04/12 07:24:03;;;;;;;;;;;8.80;99.90;;;;;;4941147;29;19926;-75
2023/04/12 07:26:30;;;;;;;;;;;8.80;99.90;;;;;;4915876;29;20660;-75
2023/04/12 07:28:55;;;;;;;;;;;8.90;99.90;;;;;;4916408;29;19914;-75
2023/04/12 07:31:22;;;;;;;;;;;8.90;99.90;;;;;;4917108;29;19914;-75
2023/04/12 07:33:48;;;;;;;;;;;9.00;99.90;;;;;;4932011;29;19915;-75
2023/04/12 07:36:15;;;;;;;;;;;9.00;99.90;;;;;;4912149;29;19921;-75
2023/04/12 07:38:41;;;;;;;;;;;9.10;99.90;;;;;;4912422;29;20255;-75
2023/04/12 07:41:06;;;;;;;;;;;9.10;99.90;;;;;;4890236;29;19915;-75
2023/04/12 07:43:32;;;;;;;;;;;9.20;99.90;;;;;;4919461;29;19985;-75
2023/04/12 07:45:58;;;;;;;;;;;9.20;99.90;;;;;;4960634;28;19914;-75
2023/04/12 07:48:23;;;;;;;;;;;9.20;99.90;;;;;;4955381;28;19914;-75
2023/04/12 07:50:49;;;;;;;;;;;9.20;99.90;;;;;;4947151;29;20362;-75
2023/04/12 07:53:23;;;;;;;;;;;9.20;99.90;;;;;;4928947;29;19946;-75
2023/04/12 07:55:48;;;;;;;;;;;9.30;99.90;;;;;;4939775;29;19950;-75
2023/04/12 07:58:14;;;;;;;;;;;9.30;99.90;;;;;;4911569;29;19946;-76
2023/04/12 08:00:40;;;;;;;;;;;9.40;99.90;;;;;;4905028;29;20328;-75
2023/04/12 08:03:06;;;;;;;;;;;9.40;99.90;;;;;;4957709;28;19918;-75
2023/04/12 08:05:32;;;;;;;;;;;9.50;99.90;;;;;;4928002;29;19957;-75
2023/04/12 08:07:57;;;;;;;;;;;9.50;99.90;;;;;;4915594;29;20354;-75
2023/04/12 08:10:23;;;;;;;;;;;9.50;99.90;;;;;;4921675;29;19973;-75
2023/04/12 08:12:49;;;;;;;;;;;9.60;99.90;;;;;;4926042;29;19953;-75
2023/04/12 08:15:15;;;;;;;;;;;9.60;99.90;;;;;;4949576;29;19919;-75
2023/04/12 08:17:42;;;;;;;;;;;9.80;99.90;;;;;;4933150;29;19925;-76
2023/04/12 08:20:08;;;;;;;;;;;9.80;99.90;;;;;;4945769;29;20684;-75
2023/04/12 08:22:34;;;;;;;;;;;9.90;99.90;;;;;;4922293;29;19910;-75
2023/04/12 08:25:00;;;;;;;;;;;9.90;99.90;;;;;;4949399;29;20052;-75
2023/04/12 08:27:27;;;;;;;;;;;10.00;99.90;;;;;;4917594;29;19964;-75
2023/04/12 08:29:53;;;;;;;;;;;10.00;99.90;;;;;;4945940;29;20247;-75
2023/04/12 08:32:19;;;;;;;;;;;10.10;99.90;;;;;;4954428;29;19911;-75
2023/04/12 08:34:45;;;;;;;;;;;10.20;99.90;;;;;;4958512;28;20379;-75
2023/04/12 08:37:11;;;;;;;;;;;10.30;99.90;;;;;;4918906;29;20371;-75
2023/04/12 08:39:37;;;;;;;;;;;10.50;99.90;;;;;;4910527;29;19992;-75
2023/04/12 08:42:03;;;;;;;;;;;10.60;99.90;;;;;;4937270;29;20037;-75
2023/04/12 08:44:38;;;;;;;;;;;10.70;99.90;;;;;;4947884;29;19930;-74
2023/04/12 08:47:05;;;;;;;;;;;10.80;99.90;;;;;;4947767;29;20248;-74
2023/04/12 08:49:32;;;;;;;;;;;10.70;99.90;;;;;;4957818;28;19911;-74
2023/04/12 08:52:08;;;;;;;;;;;10.70;99.90;;;;;;4940978;29;19946;-74
2023/04/12 08:54:33;;;;;;;;;;;10.80;99.90;;;;;;4930689;29;19911;-74
2023/04/12 08:57:00;;;;;;;;;;;10.80;99.90;;;;;;4927880;29;19915;-73
2023/04/12 08:59:26;;;;;;;;;;;10.90;99.90;;;;;;4943048;29;19941;-74
2023/04/12 09:01:51;;;;;;;;;;;10.90;99.90;;;;;;4924160;29;20001;-74
2023/04/12 09:04:17;;;;;;;;;;;11.00;99.90;;;;;;4969622;28;19934;-74
2023/04/12 09:06:43;;;;;;;;;;;11.00;99.90;;;;;;4914618;29;20312;-74
2023/04/12 09:09:08;;;;;;;;;;;11.00;99.90;;;;;;4947465;29;19922;-74
2023/04/12 09:11:36;;;;;;;;;;;11.10;99.90;;;;;;4958270;28;19915;-74
2023/04/12 09:14:02;;;;;;;;;;;11.20;99.90;;;;;;4941909;29;19918;-74
2023/04/12 09:16:34;;;;;;;;;;;11.30;99.90;;;;;;4921985;29;19925;-74
2023/04/12 09:19:01;;;;;;;;;;;11.30;99.90;;;;;;4940814;29;20260;-74
2023/04/12 09:21:28;;;;;;;;;;;11.40;99.90;;;;;;4925635;29;19914;-74
2023/04/12 09:24:10;;;;;;;;;;;11.40;99.90;;;;;;4936746;29;19962;-75
2023/04/12 09:26:37;;;;;;;;;;;11.40;99.90;;;;;;4941676;28;19920;-73
2023/04/12 09:29:03;;;;;;;;;;;11.40;99.90;;;;;;4913879;29;19929;-73
2023/04/12 09:31:29;;;;;;;;;;;11.40;99.90;;;;;;4913329;29;19973;-74
2023/04/12 09:34:07;;;;;;;;;;;11.40;99.90;;;;;;4897668;29;20018;-73
2023/04/12 09:36:37;;;;;;;;;;;11.40;99.90;;;;;;4942958;29;19925;-73
2023/04/12 09:39:04;;;;;;;;;;;11.40;99.90;;;;;;4940353;29;19918;-74
2023/04/12 09:41:30;;;;;;;;;;;11.40;99.90;;;;;;4951897;28;19964;-74
2023/04/12 09:43:57;;;;;;;;;;;11.30;99.90;;;;;;4906323;29;19930;-74
2023/04/12 09:46:22;;;;;;;;;;;11.30;99.90;;;;;;4905610;29;19930;-73
2023/04/12 09:48:55;;;;;;;;;;;11.20;99.90;;;;;;4886453;29;19919;-74
2023/04/12 09:51:27;;;;;;;;;;;11.10;99.90;;;;;;4941802;29;20430;-74
2023/04/12 09:53:53;;;;;;;;;;;10.90;99.90;;;;;;4934172;29;19915;-74
2023/04/12 09:56:19;;;;;;;;;;;10.80;99.90;;;;;;4915846;29;20366;-73
2023/04/12 09:58:45;;;;;;;;;;;10.80;99.90;;;;;;4898458;29;19915;-73
2023/04/12 10:01:11;;;;;;;;;;;10.70;99.90;;;;;;4914146;29;19915;-74
2023/04/12 10:03:41;;;;;;;;;;;10.50;99.90;;;;;;4955955;28;19926;-73
2023/04/12 10:06:07;;;;;;;;;;;10.50;99.90;;;;;;4932519;29;19922;-73
2023/04/12 10:08:32;;;;;;;;;;;10.50;99.90;;;;;;4910988;29;19919;-73
2023/04/12 10:10:58;;;;;;;;;;;10.50;99.90;;;;;;4906086;29;20004;-73
2023/04/12 10:13:24;;;;;;;;;;;10.40;99.90;;;;;;4905738;29;20721;-73
2023/04/12 10:15:50;;;;;;;;;;;10.30;99.90;;;;;;4906263;29;19919;-73
2023/04/12 10:18:17;;;;;;;;;;;10.40;99.90;;;;;;4892979;29;20392;-74
2023/04/12 10:20:42;;;;;;;;;;;10.40;99.90;;;;;;4888432;29;19915;-75
2023/04/12 10:23:08;;;;;;;;;;;10.30;99.90;;;;;;4919593;29;19930;-74
2023/04/12 10:25:33;;;;;;;;;;;10.20;99.90;;;;;;4950385;28;20009;-74
2023/04/12 10:28:32;;;;;;;;;;;10.10;99.90;;;;;;4940774;29;19911;-74
2023/04/12 10:30:57;;;;;;;;;;;10.10;99.90;;;;;;4901264;29;20077;-74
2023/04/12 10:33:26;;;;;;;;;;;10.00;99.90;;;;;;4928845;29;20379;-74
2023/04/12 10:35:55;;;;;;;;;;;10.10;99.90;;;;;;4913337;29;19944;-74
2023/04/12 10:38:23;;;;;;;;;;;10.00;99.90;;;;;;4932912;29;19914;-74
2023/04/12 10:41:08;;;;;;;;;;;9.90;99.90;;;;;;4966513;28;19911;-73
2023/04/12 10:43:34;;;;;;;;;;;9.90;99.90;;;;;;4903595;29;20029;-74
2023/04/12 10:46:03;;;;;;;;;;;9.80;99.90;;;;;;4914637;29;20654;-74
2023/04/12 10:48:33;;;;;;;;;;;9.70;99.90;;;;;;4933065;29;19926;-74
2023/04/12 10:51:10;;;;;;;;;;;9.70;99.90;;;;;;4942321;29;20311;-73
2023/04/12 10:53:36;;;;;;;;;;;9.70;99.90;;;;;;4936959;29;19938;-73
2023/04/12 10:56:02;;;;;;;;;;;9.60;99.90;;;;;;4935497;29;19915;-73
2023/04/12 10:58:55;;;;;;;;;;;9.50;99.90;;;;;;4940139;29;19966;-73
2023/04/12 11:01:20;;;;;;;;;;;9.50;99.90;;;;;;4944918;28;19940;-73
2023/04/12 11:04:05;;;;;;;;;;;9.60;99.90;;;;;;4912123;29;19918;-73
2023/04/12 11:06:49;;;;;;;;;;;9.50;99.90;;;;;;4924847;29;20001;-73
2023/04/12 11:09:15;;;;;;;;;;;9.50;99.90;;;;;;4954944;28;20224;-73
2023/04/12 11:11:41;;;;;;;;;;;9.40;99.90;;;;;;4953431;29;19930;-73
2023/04/12 11:14:08;;;;;;;;;;;9.50;99.90;;;;;;4904451;29;20260;-74
2023/04/12 11:16:34;;;;;;;;;;;9.40;99.90;;;;;;4918804;29;19934;-74
2023/04/12 11:18:59;;;;;;;;;;;9.50;99.90;;;;;;4915998;29;19922;-74
2023/04/12 11:21:27;;;;;;;;;;;9.50;99.90;;;;;;4953751;28;19923;-74
2023/04/12 11:23:53;;;;;;;;;;;9.50;99.90;;;;;;4932784;29;20209;-74
2023/04/12 11:26:20;;;;;;;;;;;9.40;99.90;;;;;;4943210;29;19962;-74
2023/04/12 11:28:47;;;;;;;;;;;9.30;99.90;;;;;;4950846;29;19914;-74
2023/04/12 11:31:13;;;;;;;;;;;9.30;99.90;;;;;;4946870;29;19925;-74
2023/04/12 11:33:40;;;;;;;;;;;9.30;99.90;;;;;;4921094;29;19911;-74
2023/04/12 11:36:06;;;;;;;;;;;9.30;99.90;;;;;;4935540;29;19914;-74
2023/04/12 11:38:32;;;;;;;;;;;9.20;99.90;;;;;;4939682;29;19921;-74
2023/04/12 11:40:58;;;;;;;;;;;9.20;99.90;;;;;;4934742;29;19915;-74
2023/04/12 11:43:24;;;;;;;;;;;9.20;99.90;;;;;;4931449;29;20048;-74
2023/04/12 11:45:57;;;;;;;;;;;9.20;99.90;;;;;;4939912;29;19914;-73
2023/04/12 11:48:24;;;;;;;;;;;9.00;99.90;;;;;;4948432;29;20311;-73
2023/04/12 11:50:50;;;;;;;;;;;9.00;99.90;;;;;;4955410;28;19929;-74
2023/04/12 11:53:16;;;;;;;;;;;9.00;99.90;;;;;;4952468;29;19918;-73
2023/04/12 11:55:48;;;;;;;;;;;9.00;99.90;;;;;;4929048;29;19926;-73
2023/04/12 11:58:14;;;;;;;;;;;8.90;99.90;;;;;;4954828;29;20283;-74
2023/04/12 12:00:41;;;;;;;;;;;9.00;99.90;;;;;;4916174;29;19910;-74
2023/04/12 12:03:10;;;;;;;;;;;8.90;99.90;;;;;;4898981;29;19932;-72
2023/04/12 12:05:37;;;;;;;;;;;8.90;99.90;;;;;;4925409;29;20038;-72
2023/04/12 12:08:06;;;;;;;;;;;9.00;99.90;;;;;;4930027;29;20236;-73
2023/04/12 12:10:32;;;;;;;;;;;9.00;99.90;;;;;;4955379;28;19965;-74
2023/04/12 12:12:58;;;;;;;;;;;9.00;99.90;;;;;;4961921;28;19922;-74
2023/04/12 12:15:27;;;;;;;;;;;9.00;99.90;;;;;;4934071;29;19919;-74
2023/04/12 12:17:53;;;;;;;;;;;9.00;99.90;;;;;;4893121;29;20629;-74
2023/04/12 12:20:20;;;;;;;;;;;8.90;99.90;;;;;;4915020;29;20340;-74
2023/04/12 12:22:46;;;;;;;;;;;9.00;99.90;;;;;;4949518;29;19910;-74
2023/04/12 12:25:16;;;;;;;;;;;8.90;99.90;;;;;;4933599;29;19915;-74
2023/04/12 12:27:46;;;;;;;;;;;8.90;99.90;;;;;;4907079;29;20315;-74
2023/04/12 12:30:13;;;;;;;;;;;9.00;99.90;;;;;;4901010;29;19918;-74
2023/04/12 12:32:39;;;;;;;;;;;9.10;99.90;;;;;;4964912;28;19921;-74
2023/04/12 12:35:08;;;;;;;;;;;9.10;99.90;;;;;;4951105;29;19910;-74
2023/04/12 12:37:34;;;;;;;;;;;9.00;99.90;;;;;;4928075;29;19953;-74
2023/04/12 12:40:09;;;;;;;;;;;9.00;99.90;;;;;;4898195;29;20048;-74
2023/04/12 12:42:34;;;;;;;;;;;9.00;99.90;;;;;;4946847;29;19922;-74
2023/04/12 12:45:03;;;;;;;;;;;9.00;99.90;;;;;;4920950;29;20366;-73
2023/04/12 12:47:29;;;;;;;;;;;9.00;99.90;;;;;;4914287;29;19921;-73
2023/04/12 12:49:55;;;;;;;;;;;9.10;99.90;;;;;;4890191;29;20327;-73
2023/04/12 12:52:21;;;;;;;;;;;9.10;99.90;;;;;;4912843;29;20009;-74
2023/04/12 12:54:46;;;;;;;;;;;9.10;99.90;;;;;;4948948;29;19925;-73
2023/04/12 12:57:12;;;;;;;;;;;9.20;99.90;;;;;;4909910;29;19918;-74
2023/04/12 12:59:38;;;;;;;;;;;9.20;99.90;;;;;;4938317;29;19957;-74
2023/04/12 13:02:04;;;;;;;;;;;9.10;99.90;;;;;;4962402;28;19918;-73
2023/04/12 13:04:29;;;;;;;;;;;9.10;99.90;;;;;;4941238;29;19919;-74
2023/04/12 13:06:55;;;;;;;;;;;9.10;99.90;;;;;;4956996;28;19925;-74
2023/04/12 13:09:21;;;;;;;;;;;9.10;99.90;;;;;;4941944;29;19978;-74
2023/04/12 13:11:47;;;;;;;;;;;9.10;99.90;;;;;;4953350;29;19949;-74
2023/04/12 13:14:15;;;;;;;;;;;9.10;99.90;;;;;;4939455;29;20344;-74
2023/04/12 13:16:41;;;;;;;;;;;9.10;99.90;;;;;;4931327;29;19921;-74
2023/04/12 13:19:07;;;;;;;;;;;9.10;99.90;;;;;;4937597;29;19928;-74
2023/04/12 13:21:32;;;;;;;;;;;9.10;99.90;;;;;;4943450;29;19918;-74
2023/04/12 13:23:58;;;;;;;;;;;9.30;99.90;;;;;;4923133;29;19919;-74
2023/04/12 13:26:24;;;;;;;;;;;9.30;99.90;;;;;;4915905;29;19914;-74
2023/04/12 13:28:50;;;;;;;;;;;9.30;99.90;;;;;;4935111;29;19921;-74
2023/04/12 13:31:16;;;;;;;;;;;9.30;99.90;;;;;;4912131;29;19965;-73
2023/04/12 13:33:41;;;;;;;;;;;9.40;99.90;;;;;;4942949;29;19911;-74
2023/04/12 13:36:07;;;;;;;;;;;9.40;99.90;;;;;;4931729;29;19928;-74
2023/04/12 13:38:33;;;;;;;;;;;9.40;99.90;;;;;;4958298;28;20340;-74
2023/04/12 13:40:59;;;;;;;;;;;9.50;99.90;;;;;;4922988;29;19915;-75
2023/04/12 13:43:24;;;;;;;;;;;9.40;99.90;;;;;;4909947;29;20017;-74
2023/04/12 13:45:51;;;;;;;;;;;9.50;99.90;;;;;;4927486;29;19941;-74
2023/04/12 13:48:18;;;;;;;;;;;9.50;99.90;;;;;;4903288;29;19914;-73
2023/04/12 13:50:44;;;;;;;;;;;9.50;99.90;;;;;;4935237;29;19918;-74
2023/04/12 13:53:09;;;;;;;;;;;9.50;99.90;;;;;;4961888;28;19914;-74
2023/04/12 13:55:35;;;;;;;;;;;9.50;99.90;;;;;;4928487;29;19914;-74
2023/04/12 13:58:00;;;;;;;;;;;9.50;99.90;;;;;;4935944;29;19915;-74
2023/04/12 14:00:26;;;;;;;;;;;9.60;99.90;;;;;;4902558;29;19974;-74
2023/04/12 14:02:52;;;;;;;;;;;9.60;99.90;;;;;;4952080;28;19933;-74
2023/04/12 14:05:17;;;;;;;;;;;9.70;99.90;;;;;;4944499;29;20021;-74
2023/04/12 14:07:43;;;;;;;;;;;9.60;99.90;;;;;;4945844;28;19915;-74
2023/04/12 14:10:09;;;;;;;;;;;9.60;99.90;;;;;;4932837;29;20308;-73
2023/04/12 14:12:35;;;;;;;;;;;9.60;99.90;;;;;;4929380;29;19918;-74
2023/04/12 14:15:02;;;;;;;;;;;9.60;99.90;;;;;;4912427;29;19914;-74
2023/04/12 14:17:30;;;;;;;;;;;9.60;99.90;;;;;;4907693;29;19919;-74
2023/04/12 14:19:56;;;;;;;;;;;9.60;99.90;;;;;;4906410;29;19930;-74
2023/04/12 14:22:22;;;;;;;;;;;9.60;99.90;;;;;;4960288;28;19918;-74
2023/04/12 14:24:48;;;;;;;;;;;9.60;99.90;;;;;;4930120;29;20521;-74
2023/04/12 14:27:13;;;;;;;;;;;9.50;99.90;;;;;;4917060;29;19922;-74